Time;durP1;ratioP1;P1;durP2;ratioP2;P2;SDS_P1;SDS_P2;PMS_P1;PMS_P2;Temp;Humidity;BMP_temperature;BMP_pressure;BME280_temperature;BME280_humidity;BME280_pressure;Samples;Min_cycle;Max_cycle;Signal;HPM_P1;HPM_P2
2022/03/20 06:27:42;;;;;;;;;;;;;;;7.25;65.91;97927.34;4223833;27;10383;-72
2022/03/20 06:29:44;;;;;;;;;;;;;;;7.33;66.04;97936.28;4211595;28;5790;-72
2022/03/20 06:31:49;;;;;;;;;;;;;;;7.38;65.71;97928.81;4202812;28;5817;-71
2022/03/20 06:33:50;;;;;;;;;;;;;;;7.41;65.93;97931.97;4208037;28;5712;-72
2022/03/20 06:35:56;;;;;;;;;;;;;;;7.38;65.84;97934.06;4209334;28;5117;-73
2022/03/20 06:37:58;;;;;;;;;;;;;;;7.40;65.60;97935.59;4213424;28;6418;-72
2022/03/20 06:40:00;;;;;;;;;;;;;;;7.45;65.64;97940.41;4213332;28;5679;-72
2022/03/20 06:42:01;;;;;;;;;;;;;;;7.50;65.46;97936.38;4211577;28;5800;-73
2022/03/20 06:44:05;;;;;;;;;;;;;;;7.57;65.11;97937.44;4211490;28;5787;-72
2022/03/20 06:46:07;;;;;;;;;;;;;;;7.64;64.66;97939.47;4207228;28;5896;-72
2022/03/20 06:48:25;;;;;;;;;;;;;;;7.58;65.14;97941.72;4203393;28;5746;-71
2022/03/20 06:50:27;;;;;;;;;;;;;;;7.48;65.48;97945.38;4197331;28;5706;-71
2022/03/20 06:52:32;;;;;;;;;;;;;;;7.59;65.51;97948.66;4208986;28;5726;-73
2022/03/20 06:54:34;;;;;;;;;;;;;;;7.57;65.53;97953.22;4213279;28;5664;-72
2022/03/20 06:56:36;;;;;;;;;;;;;;;7.48;65.66;97956.75;4211923;28;5659;-72
2022/03/20 06:58:37;;;;;;;;;;;;;;;7.64;65.78;97950.00;4211984;28;5749;-72
2022/03/20 07:00:40;;;;;;;;;;;;;;;7.82;65.14;97956.16;4202881;28;5748;-72
2022/03/20 07:02:42;;;;;;;;;;;;;;;7.81;64.90;97951.84;4204838;28;5808;-73
2022/03/20 07:04:43;;;;;;;;;;;;;;;7.73;65.41;97951.78;4205320;28;5659;-72
2022/03/20 07:06:45;;;;;;;;;;;;;;;7.88;64.98;97956.38;4209360;28;5705;-73
2022/03/20 07:08:46;;;;;;;;;;;;;;;7.71;65.73;97961.63;4207741;28;5700;-73
2022/03/20 07:10:48;;;;;;;;;;;;;;;7.65;65.83;97963.03;4212809;28;5860;-73
2022/03/20 07:12:50;;;;;;;;;;;;;;;7.59;66.29;97958.34;4208753;28;5660;-61
2022/03/20 07:14:53;;;;;;;;;;;;;;;7.79;65.52;97959.88;4211615;28;5839;-72
2022/03/20 07:16:55;;;;;;;;;;;;;;;7.80;65.42;97961.53;4210851;28;5685;-73
2022/03/20 07:18:58;;;;;;;;;;;;;;;7.91;65.52;97970.22;4210574;28;5793;-73
2022/03/20 07:21:00;;;;;;;;;;;;;;;7.85;65.83;97959.31;4202693;28;5698;-73
2022/03/20 07:23:02;;;;;;;;;;;;;;;7.85;66.30;97958.50;4200188;28;5853;-72
2022/03/20 07:29:52;;;;;;;;;;;;;;;7.94;66.60;97967.31;4200950;28;5803;-73
2022/03/20 07:31:54;;;;;;;;;;;;;;;8.06;66.49;97969.59;4190196;28;5739;-73
2022/03/20 07:33:56;;;;;;;;;;;;;;;8.23;66.17;97969.75;4189339;28;5827;-73
2022/03/20 07:35:59;;;;;;;;;;;;;;;8.28;65.58;97970.97;4190122;28;5822;-73
2022/03/20 07:38:01;;;;;;;;;;;;;;;8.29;65.44;97975.25;4198314;28;5961;-73
2022/03/20 07:40:03;;;;;;;;;;;;;;;8.23;65.97;97970.56;4199347;28;6993;-73
2022/03/20 07:42:05;;;;;;;;;;;;;;;8.14;66.22;97980.19;4194698;28;5086;-73
2022/03/20 07:44:08;;;;;;;;;;;;;;;8.36;66.09;97978.94;4196767;28;7728;-73
2022/03/20 07:46:09;;;;;;;;;;;;;;;8.32;67.04;97976.75;4196033;28;5718;-73
2022/03/20 07:48:11;;;;;;;;;;;;;;;8.44;66.86;97980.84;4200328;28;5868;-74
2022/03/20 07:50:13;;;;;;;;;;;;;;;8.44;67.40;97986.13;4199246;28;5811;-73
2022/03/20 07:52:15;;;;;;;;;;;;;;;8.53;67.28;97984.41;4185313;28;5718;-73
2022/03/20 07:54:17;;;;;;;;;;;;;;;8.51;67.45;97981.91;4195460;28;5723;-71
2022/03/20 07:56:22;;;;;;;;;;;;;;;8.35;69.88;97987.84;4197275;28;5701;-71
2022/03/20 07:58:24;;;;;;;;;;;;;;;8.36;69.58;97993.94;4195955;28;5726;-64
2022/03/20 08:00:26;;;;;;;;;;;;;;;8.52;68.83;97990.66;4193357;28;5801;-65
2022/03/20 08:02:28;;;;;;;;;;;;;;;8.54;68.99;97992.16;4198641;28;6174;-65
2022/03/20 08:04:31;;;;;;;;;;;;;;;8.45;69.34;97993.03;4199933;28;5701;-64
2022/03/20 08:06:33;;;;;;;;;;;;;;;8.55;67.98;97988.53;4199037;28;6335;-64
2022/03/20 08:08:39;;;;;;;;;;;;;;;8.67;67.67;97992.59;4195679;28;5652;-65
2022/03/20 08:10:41;;;;;;;;;;;;;;;8.67;67.79;97991.75;4197035;28;6309;-65
2022/03/20 08:12:43;;;;;;;;;;;;;;;8.75;67.69;97983.94;4197582;28;6378;-65
2022/03/20 08:14:44;;;;;;;;;;;;;;;8.73;68.13;97992.00;4199416;28;5693;-65
2022/03/20 08:16:49;;;;;;;;;;;;;;;8.56;68.56;97989.34;4201604;28;5698;-66
2022/03/20 08:18:52;;;;;;;;;;;;;;;8.75;68.22;97990.03;4201458;28;5787;-65
2022/03/20 08:20:54;;;;;;;;;;;;;;;8.71;67.76;97987.81;4201465;28;5701;-65
2022/03/20 08:22:56;;;;;;;;;;;;;;;8.88;67.67;97989.63;4201544;28;5795;-65
2022/03/20 08:24:58;;;;;;;;;;;;;;;9.06;67.41;97992.25;4200895;28;5784;-64
2022/03/20 08:27:00;;;;;;;;;;;;;;;9.15;66.99;97991.28;4200065;28;5697;-65
2022/03/20 08:29:02;;;;;;;;;;;;;;;9.13;66.65;97989.81;4198524;28;5755;-65
2022/03/20 08:31:06;;;;;;;;;;;;;;;9.08;66.83;97990.28;4217861;28;6369;-65
2022/03/20 08:33:07;;;;;;;;;;;;;;;8.93;67.53;97989.16;4214649;28;5788;-65
2022/03/20 08:35:13;;;;;;;;;;;;;;;8.88;67.77;97989.63;4212706;28;5731;-65
2022/03/20 08:37:16;;;;;;;;;;;;;;;9.08;66.74;97987.63;4210916;28;5711;-64
2022/03/20 08:39:17;;;;;;;;;;;;;;;9.09;67.05;97985.81;4183213;28;5732;-65
2022/03/20 08:41:20;;;;;;;;;;;;;;;9.16;66.41;97990.31;4192905;28;5725;-66
2022/03/20 08:43:22;;;;;;;;;;;;;;;9.15;65.39;97986.00;4217709;28;6443;-65
2022/03/20 08:45:31;;;;;;;;;;;;;;;9.17;65.97;97994.59;4209560;28;5775;-64
2022/03/20 08:47:36;;;;;;;;;;;;;;;9.30;64.45;97996.84;4217335;28;5683;-65
2022/03/20 08:49:38;;;;;;;;;;;;;;;9.41;64.48;97995.75;4217930;28;5688;-65
2022/03/20 08:51:39;;;;;;;;;;;;;;;9.41;63.35;97993.13;4217541;28;6341;-65
2022/03/20 08:53:41;;;;;;;;;;;;;;;9.46;63.59;98004.84;4204957;28;5783;-65
2022/03/20 08:55:43;;;;;;;;;;;;;;;9.48;63.31;97999.41;4200500;28;5698;-65
2022/03/20 08:57:48;;;;;;;;;;;;;;;9.52;62.34;98004.25;4200695;28;6358;-67
2022/03/20 08:59:49;;;;;;;;;;;;;;;9.57;62.57;97996.66;4200773;28;5917;-65
2022/03/20 09:01:51;;;;;;;;;;;;;;;9.58;62.73;98008.06;4200761;28;5776;-65
2022/03/20 09:03:53;;;;;;;;;;;;;;;9.65;62.43;98002.97;4200453;28;5712;-65
2022/03/20 09:05:54;;;;;;;;;;;;;;;9.73;61.83;97995.91;4200287;28;5814;-64
2022/03/20 09:07:57;;;;;;;;;;;;;;;9.58;61.44;98003.59;4200436;28;5701;-64
2022/03/20 09:09:59;;;;;;;;;;;;;;;9.68;61.26;98002.66;4200371;28;5904;-64
2022/03/20 09:12:01;;;;;;;;;;;;;;;9.81;60.44;98003.03;4199616;28;6486;-64
2022/03/20 09:14:03;;;;;;;;;;;;;;;9.69;60.33;98005.13;4200139;28;6635;-64
2022/03/20 09:20:45;;;;;;;;;;;;;;;9.93;60.82;98001.78;4206722;28;6514;-65
2022/03/20 09:22:47;;;;;;;;;;;;;;;10.02;60.56;98000.00;4198476;28;5809;-65
2022/03/20 09:24:49;;;;;;;;;;;;;;;10.09;59.49;97991.28;4198553;28;5775;-65
2022/03/20 09:26:50;;;;;;;;;;;;;;;10.12;59.91;98000.69;4197050;28;5686;-66
2022/03/20 09:28:52;;;;;;;;;;;;;;;10.20;59.67;98003.34;4203917;28;5743;-65
2022/03/20 09:30:54;;;;;;;;;;;;;;;10.26;59.11;97996.63;4215627;28;5755;-65
2022/03/20 09:32:56;;;;;;;;;;;;;;;10.32;59.17;98004.75;4198337;28;5800;-65
2022/03/20 09:34:58;;;;;;;;;;;;;;;10.27;59.06;98000.91;4198516;28;6478;-65
2022/03/20 09:36:59;;;;;;;;;;;;;;;10.40;58.86;98001.28;4205172;28;5761;-65
2022/03/20 09:39:01;;;;;;;;;;;;;;;10.40;59.31;98009.19;4199652;28;5860;-65
2022/03/20 09:41:07;;;;;;;;;;;;;;;10.31;59.83;98016.31;4200027;28;5895;-65
2022/03/20 09:43:08;;;;;;;;;;;;;;;10.46;59.65;98019.97;4197519;28;5783;-65
2022/03/20 09:45:10;;;;;;;;;;;;;;;10.41;57.92;98016.97;4203035;28;5835;-65
2022/03/20 09:47:13;;;;;;;;;;;;;;;10.37;58.99;98015.63;4213172;28;5767;-65
2022/03/20 09:49:18;;;;;;;;;;;;;;;10.45;59.31;98018.31;4214364;28;5757;-65
2022/03/20 09:51:19;;;;;;;;;;;;;;;10.58;59.65;98011.72;4213805;28;5767;-65
2022/03/20 09:53:21;;;;;;;;;;;;;;;10.57;59.98;98015.34;4214147;28;6246;-65
2022/03/20 09:55:23;;;;;;;;;;;;;;;10.52;59.33;98013.19;4214211;28;5762;-65
2022/03/20 09:57:28;;;;;;;;;;;;;;;10.51;59.50;98019.47;4213593;28;5808;-64
2022/03/20 09:59:30;;;;;;;;;;;;;;;10.50;59.02;98009.88;4213892;28;5798;-64
2022/03/20 10:01:34;;;;;;;;;;;;;;;10.52;59.50;98012.34;4214243;28;5779;-65
2022/03/20 10:03:36;;;;;;;;;;;;;;;10.48;60.02;98020.63;4213089;28;5759;-65
2022/03/20 10:05:38;;;;;;;;;;;;;;;10.47;59.34;98013.69;4213949;28;5774;-65
2022/03/20 10:07:42;;;;;;;;;;;;;;;10.38;57.43;98017.28;4213675;28;5770;-65
2022/03/20 10:10:06;;;;;;;;;;;;;;;10.33;58.34;98014.31;4213863;28;6595;-65
2022/03/20 10:12:08;;;;;;;;;;;;;;;10.26;57.45;98023.03;4213903;28;5798;-65
2022/03/20 10:14:13;;;;;;;;;;;;;;;10.32;58.06;98014.50;4213814;28;5827;-65
2022/03/20 10:16:17;;;;;;;;;;;;;;;10.41;58.54;98018.78;4208041;28;5110;-65
2022/03/20 10:18:21;;;;;;;;;;;;;;;10.43;58.40;98019.47;4196358;28;5796;-65
2022/03/20 10:20:25;;;;;;;;;;;;;;;10.41;58.80;98030.19;4197072;28;5777;-64
2022/03/20 10:22:32;;;;;;;;;;;;;;;10.43;59.05;98024.75;4196962;28;5840;-64
2022/03/20 10:24:39;;;;;;;;;;;;;;;10.46;59.52;98027.91;4197355;28;5849;-64
2022/03/20 10:26:40;;;;;;;;;;;;;;;10.47;59.55;98026.91;4191468;28;6554;-65
2022/03/20 10:28:52;;;;;;;;;;;;;;;10.39;60.21;98020.75;4180371;28;5813;-64
2022/03/20 10:30:58;;;;;;;;;;;;;;;10.46;60.04;98019.97;4202140;28;5762;-64
2022/03/20 10:33:13;;;;;;;;;;;;;;;10.45;59.86;98020.97;4216381;28;5771;-64
2022/03/20 10:35:17;;;;;;;;;;;;;;;10.44;58.65;98026.41;4216719;28;5715;-64
2022/03/20 10:37:40;;;;;;;;;;;;;;;10.55;59.38;98017.34;4216642;28;5691;-64
2022/03/20 10:39:42;;;;;;;;;;;;;;;10.54;59.39;98016.50;4216541;28;5739;-65
2022/03/20 10:41:45;;;;;;;;;;;;;;;10.61;58.24;98014.84;4216745;28;5680;-65
2022/03/20 10:44:18;;;;;;;;;;;;;;;10.67;58.52;98021.31;4216720;28;5675;-64
2022/03/20 10:46:21;;;;;;;;;;;;;;;10.70;58.06;98015.69;4216296;28;5739;-65
2022/03/20 10:48:35;;;;;;;;;;;;;;;10.73;58.07;98016.19;4210527;28;5845;-65
2022/03/20 10:50:46;;;;;;;;;;;;;;;10.80;57.45;98011.09;4196413;28;5782;-65
2022/03/20 10:53:05;;;;;;;;;;;;;;;10.84;57.29;98011.56;4199138;28;5710;-65
2022/03/20 10:55:09;;;;;;;;;;;;;;;10.91;57.22;98008.09;4198997;28;5696;-65
2022/03/20 10:57:13;;;;;;;;;;;;;;;10.91;57.26;98012.56;4198965;28;5985;-65
2022/03/20 10:59:15;;;;;;;;;;;;;;;10.89;56.45;98010.09;4198240;28;5764;-65
2022/03/20 11:01:17;;;;;;;;;;;;;;;10.91;56.80;98013.41;4196587;28;5685;-65
2022/03/20 11:03:22;;;;;;;;;;;;;;;11.03;55.53;98013.88;4191964;28;5723;-65
2022/03/20 11:05:24;;;;;;;;;;;;;;;11.02;55.41;98006.94;4186304;28;5722;-65
2022/03/20 11:07:26;;;;;;;;;;;;;;;10.97;55.12;98010.06;4186347;28;5805;-65
2022/03/20 11:09:28;;;;;;;;;;;;;;;11.08;55.22;97999.16;4186095;28;5710;-65
2022/03/20 11:11:33;;;;;;;;;;;;;;;11.14;54.81;98007.44;4185763;28;5818;-66
2022/03/20 11:13:38;;;;;;;;;;;;;;;11.23;55.01;98001.16;4197717;28;5874;-64
2022/03/20 11:15:44;;;;;;;;;;;;;;;11.31;54.04;98004.59;4201021;28;5807;-65
2022/03/20 11:17:47;;;;;;;;;;;;;;;11.26;54.25;98003.44;4197332;28;5712;-63
2022/03/20 11:19:57;;;;;;;;;;;;;;;11.36;53.15;98002.28;4196027;28;6544;-64
2022/03/20 11:22:09;;;;;;;;;;;;;;;11.47;53.62;98010.84;4199710;28;5697;-65
2022/03/20 11:24:15;;;;;;;;;;;;;;;11.26;52.40;97998.16;4197503;28;5867;-65
2022/03/20 11:26:20;;;;;;;;;;;;;;;11.31;50.91;98011.69;4200579;28;5694;-64
2022/03/20 11:28:23;;;;;;;;;;;;;;;11.43;52.04;98006.88;4201614;28;5869;-64
2022/03/20 11:30:31;;;;;;;;;;;;;;;11.60;51.86;98009.34;4201030;28;5851;-65
2022/03/20 11:32:34;;;;;;;;;;;;;;;11.66;51.22;98003.38;4200807;28;5941;-65
2022/03/20 11:34:37;;;;;;;;;;;;;;;11.63;51.84;98006.34;4201083;28;6363;-65
2022/03/20 11:37:02;;;;;;;;;;;;;;;11.66;51.62;97995.41;4201035;28;5788;-65
2022/03/20 11:39:15;;;;;;;;;;;;;;;11.71;51.23;97994.06;4198286;28;5676;-65
2022/03/20 11:41:19;;;;;;;;;;;;;;;11.77;51.31;97998.66;4200832;28;5703;-64
2022/03/20 11:43:23;;;;;;;;;;;;;;;11.75;49.92;98005.97;4200940;28;5803;-64
2022/03/20 11:45:24;;;;;;;;;;;;;;;11.76;50.84;97991.72;4200490;28;5689;-63
2022/03/20 11:47:29;;;;;;;;;;;;;;;11.80;51.07;97990.44;4200491;28;5724;-64
2022/03/20 11:49:31;;;;;;;;;;;;;;;11.77;49.88;97988.06;4200534;28;5997;-64
2022/03/20 11:51:54;;;;;;;;;;;;;;;11.78;50.97;97985.28;4200660;28;5784;-63
2022/03/20 11:54:04;;;;;;;;;;;;;;;11.73;49.83;97986.78;4200791;28;5721;-63
2022/03/20 11:56:07;;;;;;;;;;;;;;;11.67;49.62;97983.00;4196701;28;5697;-63
2022/03/20 11:58:24;;;;;;;;;;;;;;;11.59;49.56;97986.50;4196484;28;5700;-64
2022/03/20 12:00:28;;;;;;;;;;;;;;;11.51;47.08;97975.91;4198464;28;6465;-65
2022/03/20 12:02:36;;;;;;;;;;;;;;;11.46;47.94;97986.19;4200377;28;5860;-64
2022/03/20 12:05:03;;;;;;;;;;;;;;;11.31;47.86;97987.88;4200415;28;5700;-64
2022/03/20 12:07:40;;;;;;;;;;;;;;;11.64;48.37;97976.19;4179109;28;5812;-64
2022/03/20 12:10:01;;;;;;;;;;;;;;;11.56;48.90;97972.78;4200717;28;5082;-65
2022/03/20 12:12:26;;;;;;;;;;;;;;;11.71;47.45;97964.94;4199158;28;5724;-65
2022/03/20 12:14:36;;;;;;;;;;;;;;;11.81;47.89;97974.38;4196247;28;5757;-65
2022/03/20 12:16:43;;;;;;;;;;;;;;;11.86;48.65;97965.88;4200038;28;6136;-65
2022/03/20 12:19:08;;;;;;;;;;;;;;;11.93;47.70;97967.69;4199945;28;5712;-65
2022/03/20 12:21:10;;;;;;;;;;;;;;;11.88;47.51;97972.66;4197182;28;6371;-65
2022/03/20 12:23:29;;;;;;;;;;;;;;;11.94;47.67;97966.69;4200267;28;5792;-65
2022/03/20 12:25:43;;;;;;;;;;;;;;;11.97;47.17;97967.31;4199945;28;5808;-65
2022/03/20 12:27:45;;;;;;;;;;;;;;;11.92;47.13;97959.91;4199844;28;5693;-65
2022/03/20 12:30:10;;;;;;;;;;;;;;;11.92;47.18;97960.72;4201220;28;5697;-65
2022/03/20 12:32:15;;;;;;;;;;;;;;;11.74;47.74;97954.81;4197749;28;5787;-64
2022/03/20 12:34:19;;;;;;;;;;;;;;;11.97;47.59;97960.19;4190379;28;5893;-65
2022/03/20 12:36:28;;;;;;;;;;;;;;;12.15;47.65;97958.13;4192311;28;6597;-65
2022/03/20 12:38:41;;;;;;;;;;;;;;;12.17;46.60;97948.16;4188254;28;5825;-66
2022/03/20 12:40:43;;;;;;;;;;;;;;;12.20;46.90;97949.63;4190946;28;5796;-65
2022/03/20 12:42:55;;;;;;;;;;;;;;;12.18;46.89;97955.13;4195764;28;5712;-65
2022/03/20 12:44:57;;;;;;;;;;;;;;;12.33;45.89;97952.53;4199002;28;5727;-65
2022/03/20 12:47:00;;;;;;;;;;;;;;;12.28;45.81;97952.25;4191210;28;6024;-65
2022/03/20 12:49:02;;;;;;;;;;;;;;;12.20;46.05;97953.09;4189843;28;5820;-65
2022/03/20 12:51:09;;;;;;;;;;;;;;;12.16;46.50;97951.00;4198232;28;5701;-65
2022/03/20 12:53:17;;;;;;;;;;;;;;;12.05;47.77;97951.38;4187834;28;6077;-65
2022/03/20 12:55:25;;;;;;;;;;;;;;;11.85;47.02;97953.63;4189174;28;5767;-65
2022/03/20 12:57:41;;;;;;;;;;;;;;;11.70;46.91;97944.75;4194774;28;5779;-65
2022/03/20 12:59:44;;;;;;;;;;;;;;;11.63;47.37;97953.34;4194204;28;5769;-65
2022/03/20 13:01:45;;;;;;;;;;;;;;;11.63;48.27;97950.72;4191857;28;5850;-65
2022/03/20 13:03:48;;;;;;;;;;;;;;;11.65;48.79;97959.31;4194003;28;5784;-65
2022/03/20 13:05:52;;;;;;;;;;;;;;;11.65;48.91;97959.31;4194914;28;5697;-66
2022/03/20 13:07:54;;;;;;;;;;;;;;;11.61;48.94;97958.00;4191648;28;5842;-66
2022/03/20 13:09:59;;;;;;;;;;;;;;;11.68;50.24;97962.63;4194336;28;5783;-65
2022/03/20 13:12:00;;;;;;;;;;;;;;;11.70;49.59;97957.97;4188204;28;5832;-65
2022/03/20 13:14:13;;;;;;;;;;;;;;;11.72;50.50;97958.63;4190348;28;5765;-65
2022/03/20 13:16:15;;;;;;;;;;;;;;;11.76;50.10;97951.97;4192769;28;5856;-65
2022/03/20 13:18:24;;;;;;;;;;;;;;;11.62;48.90;97946.41;4193099;28;5723;-65
2022/03/20 13:20:29;;;;;;;;;;;;;;;11.70;48.87;97955.34;4193671;28;5783;-65
2022/03/20 13:22:37;;;;;;;;;;;;;;;11.71;48.13;97955.16;4187127;28;5860;-65
2022/03/20 13:24:41;;;;;;;;;;;;;;;11.74;47.64;97954.81;4192109;28;5857;-64
2022/03/20 13:26:54;;;;;;;;;;;;;;;11.83;49.32;97961.75;4190437;28;5924;-64
2022/03/20 13:28:57;;;;;;;;;;;;;;;11.80;48.29;97962.13;4194259;28;5795;-64
2022/03/20 13:31:02;;;;;;;;;;;;;;;11.73;47.31;97962.94;4194502;28;5845;-64
2022/03/20 13:33:05;;;;;;;;;;;;;;;11.73;47.99;97957.63;4189011;28;5714;-64
2022/03/20 13:35:07;;;;;;;;;;;;;;;11.83;48.75;97968.88;4197686;28;6379;-65
2022/03/20 13:37:11;;;;;;;;;;;;;;;11.81;49.40;97962.94;4198265;28;5717;-65
2022/03/20 13:39:13;;;;;;;;;;;;;;;11.91;49.52;97959.09;4194037;28;5828;-65
2022/03/20 13:41:21;;;;;;;;;;;;;;;11.98;47.54;97956.53;4196496;28;5724;-66
2022/03/20 13:43:23;;;;;;;;;;;;;;;12.05;46.79;97951.38;4196848;28;5726;-66
2022/03/20 13:45:34;;;;;;;;;;;;;;;12.02;45.66;97965.81;4196281;28;5677;-66
2022/03/20 13:47:36;;;;;;;;;;;;;;;12.03;46.24;97962.16;4195777;28;5752;-68
2022/03/20 13:49:39;;;;;;;;;;;;;;;12.06;46.82;97956.50;4190768;28;6351;-66
2022/03/20 13:51:48;;;;;;;;;;;;;;;12.14;47.05;97959.13;4197115;28;5775;-66
2022/03/20 13:54:19;;;;;;;;;;;;;;;12.19;47.40;97954.13;4198979;28;5696;-66
2022/03/20 13:56:24;;;;;;;;;;;;;;;12.22;46.93;97955.59;4189348;28;5723;-65
2022/03/20 13:58:27;;;;;;;;;;;;;;;12.25;47.57;97944.66;4196692;28;5824;-65
2022/03/20 14:00:42;;;;;;;;;;;;;;;12.28;46.99;97959.38;4198704;28;5878;-65
2022/03/20 14:02:47;;;;;;;;;;;;;;;12.28;46.86;97948.78;4198308;28;7749;-65
2022/03/20 14:04:55;;;;;;;;;;;;;;;12.32;46.51;97950.06;4198780;28;5705;-65
2022/03/20 14:07:00;;;;;;;;;;;;;;;12.37;45.84;97953.03;4198756;28;5787;-65
2022/03/20 14:09:03;;;;;;;;;;;;;;;12.41;45.20;97955.13;4198705;28;5851;-65
2022/03/20 14:11:05;;;;;;;;;;;;;;;12.42;45.00;97948.81;4198261;28;5705;-65
2022/03/20 14:13:18;;;;;;;;;;;;;;;12.38;44.92;97946.72;4198594;28;5788;-65
2022/03/20 14:15:19;;;;;;;;;;;;;;;12.42;44.54;97945.34;4198601;28;5724;-65
2022/03/20 14:17:41;;;;;;;;;;;;;;;12.47;44.12;97949.13;4198274;28;5799;-64
2022/03/20 14:19:47;;;;;;;;;;;;;;;12.50;43.57;97947.94;4195813;28;5696;-65
2022/03/20 14:21:56;;;;;;;;;;;;;;;12.52;43.73;97948.59;4191909;28;5700;-65
2022/03/20 14:24:06;;;;;;;;;;;;;;;12.55;43.90;97948.22;4198645;28;5874;-65
2022/03/20 14:26:19;;;;;;;;;;;;;;;12.63;44.93;97944.72;4198148;28;6383;-65
2022/03/20 14:28:26;;;;;;;;;;;;;;;12.70;45.27;97945.66;4198458;28;5698;-65
2022/03/20 14:40:13;;;;;;;;;;;;;;;12.81;44.90;97945.22;4200253;28;5796;-66
2022/03/20 14:42:29;;;;;;;;;;;;;;;12.80;44.66;97941.75;4201663;28;6164;-65
2022/03/20 14:44:31;;;;;;;;;;;;;;;12.78;44.14;97941.09;4198090;28;5697;-65
2022/03/20 14:46:34;;;;;;;;;;;;;;;12.71;44.34;97942.81;4199792;28;5745;-65
2022/03/20 14:48:35;;;;;;;;;;;;;;;12.82;44.95;97941.56;4201664;28;5700;-65
2022/03/20 14:50:38;;;;;;;;;;;;;;;12.89;44.68;97941.66;4201455;28;5696;-66
2022/03/20 14:52:40;;;;;;;;;;;;;;;12.81;44.12;97946.06;4201402;28;5810;-65
2022/03/20 14:54:42;;;;;;;;;;;;;;;12.81;43.77;97937.25;4201679;28;5769;-65
2022/03/20 14:56:44;;;;;;;;;;;;;;;12.87;44.05;97939.19;4201392;28;5840;-65
2022/03/20 14:58:46;;;;;;;;;;;;;;;12.94;44.72;97944.63;4201059;28;5685;-65
2022/03/20 15:00:47;;;;;;;;;;;;;;;12.90;43.91;97941.47;4201558;28;5725;-65
2022/03/20 15:02:50;;;;;;;;;;;;;;;12.89;42.92;97941.66;4200902;28;5689;-65
2022/03/20 15:04:52;;;;;;;;;;;;;;;12.92;44.31;97944.78;4201355;28;5803;-65
2022/03/20 15:06:54;;;;;;;;;;;;;;;12.91;44.11;97939.66;4201325;28;5957;-65
2022/03/20 15:11:26;;;;;;;;;;;;;;;12.98;44.12;97940.59;4201578;28;5700;-65
2022/03/20 15:13:28;;;;;;;;;;;;;;;12.99;43.62;97942.22;4197585;28;5693;-65
2022/03/20 15:15:30;;;;;;;;;;;;;;;13.02;43.48;97939.22;4196733;28;5713;-65
2022/03/20 15:17:34;;;;;;;;;;;;;;;13.03;43.36;97935.56;4200982;28;5807;-64
2022/03/20 15:19:37;;;;;;;;;;;;;;;12.98;44.06;97937.94;4201077;28;5801;-64
2022/03/20 15:21:39;;;;;;;;;;;;;;;12.98;43.11;97935.28;4201088;28;5792;-65
2022/03/20 15:23:44;;;;;;;;;;;;;;;12.92;43.44;97938.66;4201063;28;5716;-65
2022/03/20 15:25:46;;;;;;;;;;;;;;;12.97;43.59;97938.94;4200922;28;5689;-64
2022/03/20 15:27:48;;;;;;;;;;;;;;;12.95;42.99;97944.44;4201014;28;5677;-65
2022/03/20 15:29:50;;;;;;;;;;;;;;;13.08;44.39;97941.16;4203186;28;5855;-65
2022/03/20 15:31:54;;;;;;;;;;;;;;;13.11;43.58;97941.59;4202389;28;5828;-65
2022/03/20 15:33:56;;;;;;;;;;;;;;;13.09;43.45;97940.16;4200575;28;5681;-65
2022/03/20 15:35:57;;;;;;;;;;;;;;;13.07;44.09;97936.84;4200126;28;5772;-65
2022/03/20 15:37:59;;;;;;;;;;;;;;;13.07;44.01;97942.16;4191904;28;5697;-65
2022/03/20 15:40:03;;;;;;;;;;;;;;;12.91;42.67;97942.28;4201029;28;5835;-65
2022/03/20 15:42:05;;;;;;;;;;;;;;;12.83;42.83;97936.06;4199450;28;5765;-65
2022/03/20 15:44:08;;;;;;;;;;;;;;;12.83;43.50;97933.44;4201132;28;5502;-65
2022/03/20 15:46:10;;;;;;;;;;;;;;;12.90;43.67;97938.00;4199096;28;7894;-65
2022/03/20 15:48:12;;;;;;;;;;;;;;;13.00;43.81;97939.38;4200028;28;5864;-65
2022/03/20 15:50:14;;;;;;;;;;;;;;;12.90;43.91;97940.66;4200787;28;5736;-65
2022/03/20 15:52:15;;;;;;;;;;;;;;;12.95;44.25;97938.31;4200736;28;5800;-65
2022/03/20 15:54:17;;;;;;;;;;;;;;;12.98;44.19;97930.78;4200422;28;5859;-65
2022/03/20 15:56:19;;;;;;;;;;;;;;;12.99;43.89;97936.94;4200673;28;5701;-65
2022/03/20 15:58:20;;;;;;;;;;;;;;;12.94;43.45;97939.31;4200398;28;5888;-65
2022/03/20 16:00:22;;;;;;;;;;;;;;;12.89;43.93;97937.19;4200612;28;5827;-65
2022/03/20 16:02:24;;;;;;;;;;;;;;;12.81;45.22;97935.44;4200790;28;5784;-65
2022/03/20 16:04:26;;;;;;;;;;;;;;;12.77;46.97;97939.44;4200350;28;5889;-65
2022/03/20 16:06:29;;;;;;;;;;;;;;;12.50;50.22;97951.44;4196496;28;5696;-65
2022/03/20 16:08:31;;;;;;;;;;;;;;;12.19;49.61;97948.81;4200311;28;5701;-65
2022/03/20 16:10:32;;;;;;;;;;;;;;;12.05;48.90;97948.75;4200520;28;5748;-65
2022/03/20 16:12:34;;;;;;;;;;;;;;;11.84;48.53;97950.16;4200399;28;5815;-65
2022/03/20 16:14:39;;;;;;;;;;;;;;;11.85;48.36;97953.63;4200279;28;6338;-65
2022/03/20 16:16:41;;;;;;;;;;;;;;;11.82;47.87;97956.63;4200470;28;5698;-65
2022/03/20 16:18:43;;;;;;;;;;;;;;;11.66;47.85;97945.09;4199960;28;5764;-65
2022/03/20 16:20:45;;;;;;;;;;;;;;;11.71;47.81;97952.50;4200258;28;5821;-65
2022/03/20 16:29:48;;;;;;;;;;;;;;;11.71;47.23;97954.34;4198804;28;5847;-65
2022/03/20 16:32:03;;;;;;;;;;;;;;;11.66;47.24;97953.03;4198880;28;5717;-65
2022/03/20 16:34:06;;;;;;;;;;;;;;;11.73;47.52;97949.69;4196310;28;6481;-65
2022/03/20 16:36:08;;;;;;;;;;;;;;;11.80;47.50;97948.03;4199371;28;5776;-65
2022/03/20 16:38:10;;;;;;;;;;;;;;;11.80;47.37;97948.03;4204011;28;5842;-65
2022/03/20 16:40:11;;;;;;;;;;;;;;;11.86;47.30;97952.63;4199689;28;5879;-65
2022/03/20 16:42:14;;;;;;;;;;;;;;;12.01;47.08;97958.06;4192992;28;5118;-65
2022/03/20 16:44:17;;;;;;;;;;;;;;;12.08;46.73;97954.50;4189889;28;5774;-65
2022/03/20 16:46:19;;;;;;;;;;;;;;;11.94;46.71;97950.78;4190063;28;5811;-65
2022/03/20 16:48:22;;;;;;;;;;;;;;;11.95;46.15;97959.56;4189061;28;5796;-65
2022/03/20 16:50:24;;;;;;;;;;;;;;;12.02;46.22;97952.56;4194317;28;5948;-66
2022/03/20 16:52:26;;;;;;;;;;;;;;;12.10;46.65;97957.81;4195889;28;5883;-66
2022/03/20 16:54:27;;;;;;;;;;;;;;;12.10;45.24;97955.16;4195782;28;5788;-66
2022/03/20 16:56:29;;;;;;;;;;;;;;;11.97;45.29;97960.19;4194507;28;5807;-66
2022/03/20 16:58:31;;;;;;;;;;;;;;;11.91;45.92;97963.56;4195780;28;5804;-66
2022/03/20 17:00:34;;;;;;;;;;;;;;;11.84;46.02;97965.22;4192662;28;5787;-66
2022/03/20 17:02:37;;;;;;;;;;;;;;;11.84;46.58;97962.59;4194317;28;5808;-66
2022/03/20 17:04:39;;;;;;;;;;;;;;;11.96;46.73;97966.50;4195204;28;6398;-66
2022/03/20 17:06:43;;;;;;;;;;;;;;;12.05;46.99;97969.94;4196385;28;5792;-66
2022/03/20 17:08:45;;;;;;;;;;;;;;;12.11;46.70;97971.88;4196075;28;5796;-67
2022/03/20 17:10:47;;;;;;;;;;;;;;;12.09;46.63;97964.09;4196740;28;5808;-67
2022/03/20 17:12:50;;;;;;;;;;;;;;;12.05;46.61;97976.06;4196137;28;5799;-67
2022/03/20 17:14:54;;;;;;;;;;;;;;;12.04;46.61;97971.78;4192589;28;5856;-68
2022/03/20 17:16:55;;;;;;;;;;;;;;;11.94;46.12;97971.97;4194824;28;5817;-67
2022/03/20 17:18:57;;;;;;;;;;;;;;;11.98;46.70;97975.09;4198129;28;5771;-67
2022/03/20 17:20:59;;;;;;;;;;;;;;;11.98;46.33;97975.09;4194923;28;5765;-68
2022/03/20 17:23:02;;;;;;;;;;;;;;;11.98;46.13;97968.97;4195606;28;5796;-68
2022/03/20 17:25:07;;;;;;;;;;;;;;;12.02;46.21;97975.59;4196180;28;5928;-68
2022/03/20 17:27:09;;;;;;;;;;;;;;;12.06;46.15;97977.72;4196123;28;6525;-68
2022/03/20 17:29:10;;;;;;;;;;;;;;;12.02;46.11;97976.44;4195529;28;5856;-68
2022/03/20 17:31:12;;;;;;;;;;;;;;;11.93;46.44;97974.81;4199782;28;5771;-68
2022/03/20 17:33:14;;;;;;;;;;;;;;;11.93;46.17;97980.09;4196236;28;5792;-67
2022/03/20 17:35:17;;;;;;;;;;;;;;;11.94;46.49;97976.44;4195985;28;6353;-68
2022/03/20 17:37:22;;;;;;;;;;;;;;;12.04;46.54;97974.41;4196201;28;5804;-67
2022/03/20 17:39:24;;;;;;;;;;;;;;;12.03;46.50;97977.25;4196292;28;5829;-66
2022/03/20 17:41:25;;;;;;;;;;;;;;;12.02;45.65;97967.66;4194889;28;6583;-67
2022/03/20 17:43:27;;;;;;;;;;;;;;;12.08;46.16;97973.06;4196146;28;5852;-68
2022/03/20 17:45:33;;;;;;;;;;;;;;;12.01;45.57;97969.47;4195907;28;5812;-67
2022/03/20 17:47:36;;;;;;;;;;;;;;;12.08;46.04;97978.38;4196267;28;5982;-65
2022/03/20 17:49:39;;;;;;;;;;;;;;;12.11;46.14;97972.72;4195929;28;6513;-66
2022/03/20 17:51:41;;;;;;;;;;;;;;;12.07;45.92;97979.38;4196170;28;5889;-66
2022/03/20 17:53:45;;;;;;;;;;;;;;;12.09;45.53;97972.06;4195974;28;5788;-66
2022/03/20 17:55:47;;;;;;;;;;;;;;;12.11;44.98;97982.47;4195989;28;5795;-66